createdAt,value
2024-01-09T00:00:19.663Z,0.83
2024-01-09T00:01:19.724Z,0.82
2024-01-09T00:02:19.616Z,0.81
2024-01-09T00:03:19.644Z,0.82
2024-01-09T00:04:19.591Z,0.83
2024-01-09T00:05:19.611Z,0.82
2024-01-09T00:06:19.657Z,0.81
2024-01-09T00:07:19.589Z,0.82
2024-01-09T00:08:19.604Z,0.82
2024-01-09T00:09:19.568Z,0.80
2024-01-09T00:10:19.537Z,0.80
2024-01-09T00:11:19.586Z,0.80
2024-01-09T00:12:19.516Z,0.81
2024-01-09T00:13:19.520Z,0.80
2024-01-09T00:14:19.521Z,0.82
2024-01-09T00:15:19.540Z,0.78
2024-01-09T00:16:19.487Z,0.81
2024-01-09T00:17:19.523Z,0.79
2024-01-09T00:18:19.609Z,0.79
2024-01-09T00:19:19.497Z,0.78
2024-01-09T00:20:19.477Z,0.79
2024-01-09T00:21:19.439Z,0.79
2024-01-09T00:22:19.446Z,0.78
2024-01-09T00:23:19.445Z,0.78
2024-01-09T00:24:19.420Z,0.76
2024-01-09T00:25:19.430Z,0.77
2024-01-09T00:26:19.448Z,0.77
2024-01-09T00:27:19.434Z,0.76
2024-01-09T00:28:19.417Z,0.77
2024-01-09T00:29:19.378Z,0.76
2024-01-09T00:30:19.390Z,0.76
2024-01-09T00:31:19.348Z,0.77
2024-01-09T00:32:19.365Z,0.77
2024-01-09T00:33:19.516Z,0.76
2024-01-09T00:34:19.512Z,0.75
2024-01-09T00:35:19.332Z,0.77
2024-01-09T00:36:19.316Z,0.77
2024-01-09T00:37:19.304Z,0.76
2024-01-09T00:38:19.339Z,0.74
2024-01-09T00:39:19.284Z,0.75
2024-01-09T00:40:19.292Z,0.75
2024-01-09T00:41:19.291Z,0.76
2024-01-09T00:42:19.252Z,0.75
2024-01-09T00:43:19.249Z,0.73
2024-01-09T00:44:19.283Z,0.74
2024-01-09T00:45:19.223Z,0.75
2024-01-09T00:46:19.321Z,0.74
2024-01-09T00:47:19.270Z,0.73
2024-01-09T00:48:19.386Z,0.73
2024-01-09T00:49:19.243Z,0.74
2024-01-09T00:50:19.204Z,0.72
2024-01-09T00:51:19.162Z,0.74
2024-01-09T00:52:19.160Z,0.73
2024-01-09T00:53:19.369Z,0.74
2024-01-09T00:54:19.149Z,0.72
2024-01-09T00:55:19.148Z,0.72
2024-01-09T00:56:19.150Z,0.72
2024-01-09T00:57:20.064Z,0.71
2024-01-09T00:58:19.104Z,0.70
2024-01-09T00:59:19.131Z,0.71
2024-01-09T01:00:19.116Z,0.71
2024-01-09T01:01:19.104Z,0.73
2024-01-09T01:02:19.091Z,0.71
2024-01-09T01:03:19.140Z,0.70
2024-01-09T01:04:19.049Z,0.70
2024-01-09T01:05:19.282Z,0.69
2024-01-09T01:06:19.053Z,0.72
2024-01-09T01:07:19.009Z,0.69
2024-01-09T01:08:19.058Z,0.69
2024-01-09T01:09:18.989Z,0.69
2024-01-09T01:10:21.094Z,0.69
2024-01-09T01:11:19.009Z,0.68
2024-01-09T01:12:18.991Z,0.69
2024-01-09T01:13:18.956Z,0.69
2024-01-09T01:14:19.011Z,0.68
2024-01-09T01:15:18.981Z,0.68
2024-01-09T01:16:18.939Z,0.67
2024-01-09T01:17:18.967Z,0.68
2024-01-09T01:18:19.112Z,0.67
2024-01-09T01:19:18.947Z,0.67
2024-01-09T01:20:19.002Z,0.68
2024-01-09T01:21:18.891Z,0.67
2024-01-09T01:22:18.883Z,0.68
2024-01-09T01:23:18.949Z,0.67
2024-01-09T01:24:18.862Z,0.67
2024-01-09T01:25:18.871Z,0.67
2024-01-09T01:26:18.873Z,0.65
2024-01-09T01:27:18.830Z,0.68
2024-01-09T01:28:18.828Z,0.66
2024-01-09T01:29:18.868Z,0.67
2024-01-09T01:30:18.830Z,0.66
2024-01-09T01:31:18.803Z,0.67
2024-01-09T01:32:18.912Z,0.67
2024-01-09T01:33:18.919Z,0.65
2024-01-09T01:34:18.839Z,0.66
2024-01-09T01:35:18.782Z,0.66
2024-01-09T01:36:18.758Z,0.65
2024-01-09T01:37:18.743Z,0.65
2024-01-09T01:38:18.762Z,0.64
2024-01-09T01:39:18.743Z,0.64
2024-01-09T01:40:18.721Z,0.64
2024-01-09T01:41:18.807Z,0.64
2024-01-09T01:42:18.713Z,0.64
2024-01-09T01:43:18.684Z,0.64
2024-01-09T01:44:18.805Z,0.64
2024-01-09T01:45:18.663Z,0.63
2024-01-09T01:46:18.665Z,0.64
2024-01-09T01:47:18.704Z,0.64
2024-01-09T01:48:18.799Z,0.64
2024-01-09T01:49:18.804Z,0.63
2024-01-09T01:50:18.674Z,0.62
2024-01-09T01:51:18.609Z,0.62
2024-01-09T01:52:18.628Z,0.63
2024-01-09T01:53:18.619Z,0.61
2024-01-09T01:54:18.584Z,0.62
2024-01-09T01:55:18.603Z,0.63
2024-01-09T01:56:18.639Z,0.63
2024-01-09T01:57:18.577Z,0.62
2024-01-09T01:58:18.557Z,0.63
2024-01-09T01:59:18.560Z,0.63
2024-01-09T02:00:18.541Z,0.62
2024-01-09T02:01:18.546Z,0.62
2024-01-09T02:02:18.570Z,0.62
2024-01-09T02:03:18.568Z,0.62
2024-01-09T02:04:18.525Z,0.62
2024-01-09T02:05:18.554Z,0.61
2024-01-09T02:06:18.538Z,0.62
2024-01-09T02:07:18.466Z,0.62
2024-01-09T02:08:18.504Z,0.61
2024-01-09T02:09:18.493Z,0.61
2024-01-09T02:10:18.442Z,0.61
2024-01-09T02:11:18.449Z,0.61
2024-01-09T02:12:18.416Z,0.60
2024-01-09T02:13:18.406Z,0.62
2024-01-09T02:14:18.433Z,0.60
2024-01-09T02:15:18.387Z,0.60
2024-01-09T02:16:18.388Z,0.59
2024-01-09T02:17:18.429Z,0.59
2024-01-09T02:18:18.629Z,0.60
2024-01-09T02:19:18.418Z,0.58
2024-01-09T02:20:18.369Z,0.59
2024-01-09T02:21:23.365Z,0.61
2024-01-09T02:22:18.331Z,0.60
2024-01-09T02:23:18.359Z,0.58
2024-01-09T02:24:18.315Z,0.60
2024-01-09T02:25:18.294Z,0.59
2024-01-09T02:26:33.550Z,0.58
2024-01-09T02:27:19.370Z,0.61
2024-01-09T02:28:18.326Z,0.60
2024-01-09T02:29:18.313Z,0.58
2024-01-09T02:30:18.333Z,0.59
2024-01-09T02:31:18.243Z,0.59
2024-01-09T02:32:18.331Z,0.59
2024-01-09T02:33:18.363Z,0.59
2024-01-09T02:34:18.334Z,0.59
2024-01-09T02:35:18.239Z,0.59
2024-01-09T02:36:18.205Z,0.58
2024-01-09T02:37:18.184Z,0.58
2024-01-09T02:38:18.210Z,0.57
2024-01-09T02:39:18.163Z,0.57
2024-01-09T02:40:18.179Z,0.57
2024-01-09T02:41:18.167Z,0.56
2024-01-09T02:42:18.154Z,0.57
2024-01-09T02:43:18.136Z,0.56
2024-01-09T02:44:18.139Z,0.58
2024-01-09T02:45:18.124Z,0.56
2024-01-09T02:46:18.101Z,0.57
2024-01-09T02:47:18.128Z,0.57
2024-01-09T02:48:18.233Z,0.57
2024-01-09T02:49:18.187Z,0.57
2024-01-09T02:50:18.101Z,0.57
2024-01-09T02:51:18.060Z,0.56
2024-01-09T02:52:18.057Z,0.56
2024-01-09T02:53:18.045Z,0.55
2024-01-09T02:54:18.064Z,0.56
2024-01-09T02:55:28.068Z,0.56
2024-01-09T02:56:18.063Z,0.56
2024-01-09T02:57:17.998Z,0.56
2024-01-09T02:58:18.006Z,0.56
2024-01-09T02:59:18.000Z,0.56
2024-01-09T03:00:17.986Z,0.57
2024-01-09T03:01:18.005Z,0.56
2024-01-09T03:02:17.995Z,0.56
2024-01-09T03:03:18.023Z,0.56
2024-01-09T03:04:17.966Z,0.55
2024-01-09T03:05:18.072Z,0.54
2024-01-09T03:06:18.022Z,0.55
2024-01-09T03:07:18.065Z,0.56
2024-01-09T03:08:17.949Z,0.54
2024-01-09T03:09:17.900Z,0.55
2024-01-09T03:10:17.895Z,0.54
2024-01-09T03:11:17.935Z,0.54
2024-01-09T03:12:17.879Z,0.54
2024-01-09T03:13:17.863Z,0.53
2024-01-09T03:14:17.880Z,0.55
2024-01-09T03:15:17.848Z,0.53
2024-01-09T03:16:17.838Z,0.54
2024-01-09T03:17:17.866Z,0.53
2024-01-09T03:18:18.031Z,0.54
2024-01-09T03:19:18.028Z,0.53
2024-01-09T03:20:17.853Z,0.53
2024-01-09T03:21:17.788Z,0.53
2024-01-09T03:22:17.775Z,0.54
2024-01-09T03:23:17.792Z,0.54
2024-01-09T03:24:17.777Z,0.53
2024-01-09T03:25:17.757Z,0.53
2024-01-09T03:26:17.775Z,0.53
2024-01-09T03:27:17.739Z,0.53
2024-01-09T03:28:17.724Z,0.54
2024-01-09T03:29:17.725Z,0.53
2024-01-09T03:30:17.775Z,0.53
2024-01-09T03:31:17.688Z,0.52
2024-01-09T03:32:17.715Z,0.53
2024-01-09T03:33:17.766Z,0.51
2024-01-09T03:34:17.713Z,0.52
2024-01-09T03:35:17.678Z,0.53
2024-01-09T03:36:17.650Z,0.52
2024-01-09T03:37:17.644Z,0.52
2024-01-09T03:38:17.780Z,0.52
2024-01-09T03:39:17.624Z,0.52
2024-01-09T03:40:17.613Z,0.51
2024-01-09T03:41:17.638Z,0.52
2024-01-09T03:42:17.600Z,0.51
2024-01-09T03:43:17.581Z,0.51
2024-01-09T03:44:17.585Z,0.52
2024-01-09T03:45:17.580Z,0.51
2024-01-09T03:46:17.583Z,0.51
2024-01-09T03:47:17.654Z,0.51
2024-01-09T03:48:17.588Z,0.51
2024-01-09T03:49:17.550Z,0.52
2024-01-09T03:50:17.607Z,0.52
2024-01-09T03:51:17.517Z,0.51
2024-01-09T03:52:17.519Z,0.50
2024-01-09T03:53:17.501Z,0.50
2024-01-09T03:54:17.510Z,0.51
2024-01-09T03:55:17.474Z,0.51
2024-01-09T03:56:17.509Z,0.51
2024-01-09T03:57:18.568Z,0.52
2024-01-09T03:58:17.444Z,0.52
2024-01-09T03:59:17.449Z,0.50
2024-01-09T04:00:17.444Z,0.51
2024-01-09T04:01:17.453Z,0.52
2024-01-09T04:02:17.460Z,0.52
2024-01-09T04:03:17.432Z,0.52
2024-01-09T04:04:17.392Z,0.51
2024-01-09T04:05:17.468Z,0.51
2024-01-09T04:06:17.470Z,0.52
2024-01-09T04:07:17.386Z,0.51
2024-01-09T04:08:17.373Z,0.50
2024-01-09T04:09:17.344Z,0.51
2024-01-09T04:10:17.348Z,0.52
2024-01-09T04:11:17.370Z,0.51
2024-01-09T04:12:17.336Z,0.51
2024-01-09T04:13:17.309Z,0.51
2024-01-09T04:14:17.329Z,0.51
2024-01-09T04:15:17.310Z,0.52
2024-01-09T04:16:17.299Z,0.51
2024-01-09T04:17:17.289Z,0.51
2024-01-09T04:18:17.372Z,0.52
2024-01-09T04:19:17.355Z,0.52
2024-01-09T04:20:17.346Z,0.51
2024-01-09T04:21:17.262Z,0.51
2024-01-09T04:22:17.226Z,0.51
2024-01-09T04:23:17.241Z,0.52
2024-01-09T04:24:17.221Z,0.50
2024-01-09T04:25:17.187Z,0.52
2024-01-09T04:26:17.213Z,0.52
2024-01-09T04:27:17.189Z,0.50
2024-01-09T04:28:22.200Z,0.51
2024-01-09T04:29:17.189Z,0.51
2024-01-09T04:30:17.171Z,0.51
2024-01-09T04:31:17.141Z,0.51
2024-01-09T04:32:17.155Z,0.51
2024-01-09T04:33:17.175Z,0.51
2024-01-09T04:34:17.232Z,0.51
2024-01-09T04:35:17.150Z,0.51
2024-01-09T04:36:17.111Z,0.52
2024-01-09T04:37:17.100Z,0.51
2024-01-09T04:38:17.092Z,0.50
2024-01-09T04:39:17.067Z,0.50
2024-01-09T04:40:17.048Z,0.50
2024-01-09T04:41:17.111Z,0.51
2024-01-09T04:42:17.039Z,0.51
2024-01-09T04:43:17.033Z,0.52
2024-01-09T04:44:17.072Z,0.51
2024-01-09T04:45:17.040Z,0.51
2024-01-09T04:46:17.150Z,0.51
2024-01-09T04:47:17.068Z,0.51
2024-01-09T04:48:17.095Z,0.51
2024-01-09T04:49:17.096Z,0.51
2024-01-09T04:50:17.035Z,0.51
2024-01-09T04:51:16.962Z,0.51
2024-01-09T04:52:16.949Z,0.51
2024-01-09T04:53:16.966Z,0.50
2024-01-09T04:54:16.938Z,0.50
2024-01-09T04:55:16.928Z,0.51
2024-01-09T04:56:16.927Z,0.51
2024-01-09T04:57:16.914Z,0.51
2024-01-09T04:58:16.879Z,0.51
2024-01-09T04:59:16.921Z,0.50
2024-01-09T05:00:16.863Z,0.51
2024-01-09T05:01:16.966Z,0.51
2024-01-09T05:02:16.878Z,0.50
2024-01-09T05:03:16.989Z,0.51
2024-01-09T05:04:16.826Z,0.50
2024-01-09T05:05:16.882Z,0.51
2024-01-09T05:06:16.873Z,0.51
2024-01-09T05:07:16.808Z,0.51
2024-01-09T05:08:16.830Z,0.52
2024-01-09T05:09:16.792Z,0.52
2024-01-09T05:10:16.774Z,0.51
2024-01-09T05:11:19.395Z,0.52
2024-01-09T05:12:16.756Z,0.52
2024-01-09T05:13:16.750Z,0.52
2024-01-09T05:14:16.785Z,0.51
2024-01-09T05:15:16.732Z,0.51
2024-01-09T05:16:16.755Z,0.51
2024-01-09T05:17:16.739Z,0.52
2024-01-09T05:18:16.827Z,0.50
2024-01-09T05:19:16.834Z,0.51
2024-01-09T05:20:16.707Z,0.51
2024-01-09T05:21:16.691Z,0.52
2024-01-09T05:22:16.674Z,0.51
2024-01-09T05:23:16.713Z,0.51
2024-01-09T05:24:16.652Z,0.51
2024-01-09T05:25:21.668Z,0.51
2024-01-09T05:26:18.116Z,0.51
2024-01-09T05:27:16.629Z,0.51
2024-01-09T05:28:16.618Z,0.51
2024-01-09T05:29:16.663Z,0.51
2024-01-09T05:30:16.689Z,0.51
2024-01-09T05:31:17.431Z,0.51
2024-01-09T05:32:16.679Z,0.51
2024-01-09T05:33:16.668Z,0.51
2024-01-09T05:34:16.601Z,0.52
2024-01-09T05:35:16.588Z,0.50
2024-01-09T05:36:16.535Z,0.51
2024-01-09T05:37:16.539Z,0.50
2024-01-09T05:38:18.996Z,0.51
2024-01-09T05:39:16.512Z,0.51
2024-01-09T05:40:16.502Z,0.51
2024-01-09T05:41:16.504Z,0.50
2024-01-09T05:42:16.490Z,0.51
2024-01-09T05:43:16.566Z,0.51
2024-01-09T05:44:16.493Z,0.51
2024-01-09T05:45:21.486Z,0.53
2024-01-09T05:46:16.449Z,0.52
2024-01-09T05:47:16.523Z,0.51
2024-01-09T05:48:16.573Z,0.51
2024-01-09T05:49:16.470Z,0.52
2024-01-09T05:50:16.462Z,0.51
2024-01-09T05:51:16.416Z,0.51
2024-01-09T05:52:16.394Z,0.51
2024-01-09T05:53:16.410Z,0.51
2024-01-09T05:54:16.373Z,0.51
2024-01-09T05:55:16.390Z,0.50
2024-01-09T05:56:16.386Z,0.50
2024-01-09T05:57:16.398Z,0.50
2024-01-09T05:58:16.341Z,0.50
2024-01-09T05:59:16.379Z,0.51
2024-01-09T06:00:16.342Z,0.50
2024-01-09T06:01:16.338Z,0.51
2024-01-09T06:02:16.330Z,0.51
2024-01-09T06:03:16.344Z,0.52
2024-01-09T06:04:16.277Z,0.51
2024-01-09T06:05:16.317Z,0.52
2024-01-09T06:06:16.315Z,0.51
2024-01-09T06:07:16.264Z,0.50
2024-01-09T06:08:16.275Z,0.51
2024-01-09T06:09:16.259Z,0.51
2024-01-09T06:10:16.245Z,0.52
2024-01-09T06:11:16.269Z,0.51
2024-01-09T06:12:17.612Z,0.51
2024-01-09T06:13:16.202Z,0.51
2024-01-09T06:14:16.241Z,0.51
2024-01-09T06:15:16.206Z,0.50
2024-01-09T06:16:16.172Z,0.52
2024-01-09T06:17:16.225Z,0.51
2024-01-09T06:18:16.298Z,0.52
2024-01-09T06:19:16.338Z,0.51
2024-01-09T06:20:16.140Z,0.51
2024-01-09T06:21:17.604Z,0.52
2024-01-09T06:22:16.115Z,0.51
2024-01-09T06:23:16.149Z,0.51
2024-01-09T06:24:16.101Z,0.52
2024-01-09T06:25:16.097Z,0.52
2024-01-09T06:26:16.136Z,0.51
2024-01-09T06:27:16.073Z,0.51
2024-01-09T06:28:16.060Z,0.50
2024-01-09T06:29:16.117Z,0.51
2024-01-09T06:30:16.057Z,0.50
2024-01-09T06:31:16.042Z,0.51
2024-01-09T06:32:16.063Z,0.52
2024-01-09T06:33:16.188Z,0.51
2024-01-09T06:34:16.110Z,0.50
2024-01-09T06:35:16.047Z,0.50
2024-01-09T06:36:15.995Z,0.51
2024-01-09T06:37:15.996Z,0.50
2024-01-09T06:38:16.005Z,0.50
2024-01-09T06:39:15.974Z,0.51
2024-01-09T06:40:15.959Z,0.51
2024-01-09T06:41:16.036Z,0.50
2024-01-09T06:42:15.947Z,0.51
2024-01-09T06:43:15.942Z,0.52
2024-01-09T06:44:15.934Z,0.52
2024-01-09T06:45:15.974Z,0.52
2024-01-09T06:46:15.895Z,0.52
2024-01-09T06:47:15.921Z,0.52
2024-01-09T06:48:15.969Z,0.51
2024-01-09T06:49:15.946Z,0.52
2024-01-09T06:50:26.179Z,0.51
2024-01-09T06:51:16.936Z,0.51
2024-01-09T06:52:15.842Z,0.51
2024-01-09T06:53:15.877Z,0.51
2024-01-09T06:54:15.817Z,0.51
2024-01-09T06:55:15.818Z,0.51
2024-01-09T06:56:20.831Z,0.52
2024-01-09T06:57:15.796Z,0.52
2024-01-09T06:58:15.793Z,0.52
2024-01-09T06:59:15.843Z,0.51
2024-01-09T07:00:15.780Z,0.52
2024-01-09T07:01:17.476Z,0.50
2024-01-09T07:02:15.857Z,0.51
2024-01-09T07:03:15.853Z,0.51
2024-01-09T07:04:16.024Z,0.51
2024-01-09T07:05:15.931Z,0.52
2024-01-09T07:06:15.840Z,0.52
2024-01-09T07:07:15.792Z,0.51
2024-01-09T07:08:15.805Z,0.52
2024-01-09T07:09:15.778Z,0.52
2024-01-09T07:10:15.753Z,0.54
2024-01-09T07:11:15.780Z,0.52
2024-01-09T07:12:15.738Z,0.54
2024-01-09T07:13:15.744Z,0.53
2024-01-09T07:14:15.859Z,0.55
2024-01-09T07:15:16.448Z,0.54
2024-01-09T07:16:15.931Z,0.56
2024-01-09T07:17:15.733Z,0.55
2024-01-09T07:18:15.824Z,0.56
2024-01-09T07:19:15.743Z,0.57
2024-01-09T07:20:16.655Z,0.57
2024-01-09T07:21:15.671Z,0.56
2024-01-09T07:22:15.646Z,0.59
2024-01-09T07:23:19.900Z,0.57
2024-01-09T07:24:16.659Z,0.57
2024-01-09T07:25:15.846Z,0.57
2024-01-09T07:26:15.773Z,0.57
2024-01-09T07:27:15.614Z,0.58
2024-01-09T07:28:15.640Z,0.56
2024-01-09T07:29:15.617Z,0.56
2024-01-09T07:30:15.632Z,0.57
2024-01-09T07:31:15.623Z,0.56
2024-01-09T07:32:15.580Z,0.56
2024-01-09T07:33:15.731Z,0.57
2024-01-09T07:34:15.584Z,0.56
2024-01-09T07:35:15.545Z,0.55
2024-01-09T07:36:15.514Z,0.56
2024-01-09T07:37:15.513Z,0.56
2024-01-09T07:38:15.546Z,0.55
2024-01-09T07:39:15.490Z,0.55
2024-01-09T07:40:15.509Z,0.55
2024-01-09T07:41:15.486Z,0.56
2024-01-09T07:42:15.463Z,0.55
2024-01-09T07:43:15.491Z,0.55
2024-01-09T07:44:15.489Z,0.55
2024-01-09T07:45:15.437Z,0.55
2024-01-09T07:46:15.442Z,0.55
2024-01-09T07:47:15.451Z,0.54
2024-01-09T07:48:15.487Z,0.54
2024-01-09T07:49:15.434Z,0.54
2024-01-09T07:50:15.407Z,0.54
2024-01-09T07:51:15.403Z,0.54
2024-01-09T07:52:15.375Z,0.53
2024-01-09T07:53:15.415Z,0.54
2024-01-09T07:54:15.346Z,0.53
2024-01-09T07:55:15.377Z,0.53
2024-01-09T07:56:15.373Z,0.55
2024-01-09T07:57:21.886Z,0.55
2024-01-09T07:58:16.321Z,0.55
2024-01-09T07:59:15.339Z,0.55
2024-01-09T08:00:15.311Z,0.55
2024-01-09T08:01:15.360Z,0.55
2024-01-09T08:02:15.292Z,0.55
2024-01-09T08:03:18.533Z,0.55
2024-01-09T08:04:16.297Z,0.55
2024-01-09T08:05:15.296Z,0.55
2024-01-09T08:06:15.334Z,0.56
2024-01-09T08:07:15.239Z,0.56
2024-01-09T08:08:15.262Z,0.56
2024-01-09T08:09:15.220Z,0.57
2024-01-09T08:10:15.216Z,0.57
2024-01-09T08:11:15.246Z,0.57
2024-01-09T08:12:15.194Z,0.57
2024-01-09T08:13:15.177Z,0.56
2024-01-09T08:14:15.244Z,0.57
2024-01-09T08:15:15.170Z,0.58
2024-01-09T08:16:15.154Z,0.58
2024-01-09T08:17:15.155Z,0.56
2024-01-09T08:18:15.277Z,0.57
2024-01-09T08:19:15.163Z,0.57
2024-01-09T08:20:15.146Z,0.57
2024-01-09T08:21:15.136Z,0.58
2024-01-09T08:22:15.094Z,0.58
2024-01-09T08:23:15.177Z,0.57
2024-01-09T08:24:15.076Z,0.56
2024-01-09T08:25:15.075Z,0.57
2024-01-09T08:26:15.106Z,0.56
2024-01-09T08:27:15.055Z,0.56
2024-01-09T08:28:15.034Z,0.57
2024-01-09T08:29:15.072Z,0.57
2024-01-09T08:30:15.071Z,0.56
2024-01-09T08:31:15.100Z,0.57
2024-01-09T08:32:15.018Z,0.56
2024-01-09T08:33:15.106Z,0.55
2024-01-09T08:34:15.162Z,0.56
2024-01-09T08:35:15.222Z,0.56
2024-01-09T08:36:14.975Z,0.55
2024-01-09T08:37:14.957Z,0.56
2024-01-09T08:38:14.951Z,0.55
2024-01-09T08:39:14.962Z,0.54
2024-01-09T08:40:14.928Z,0.54
2024-01-09T08:41:14.957Z,0.55
2024-01-09T08:42:14.912Z,0.54
2024-01-09T08:43:14.906Z,0.53
2024-01-09T08:44:14.937Z,0.53
2024-01-09T08:45:14.883Z,0.54
2024-01-09T08:46:14.873Z,0.55
2024-01-09T08:47:14.923Z,0.54
2024-01-09T08:48:14.904Z,0.54
2024-01-09T08:49:14.904Z,0.55
2024-01-09T08:50:14.891Z,0.56
2024-01-09T08:51:18.166Z,0.56
2024-01-09T08:52:15.833Z,0.56
2024-01-09T08:53:14.872Z,0.56
2024-01-09T08:54:14.811Z,0.56
2024-01-09T08:55:14.789Z,0.58
2024-01-09T08:56:14.837Z,0.59
2024-01-09T08:57:14.778Z,0.60
2024-01-09T08:58:14.766Z,0.60
2024-01-09T08:59:14.824Z,0.60
2024-01-09T09:00:14.810Z,0.61
2024-01-09T09:01:14.769Z,0.62
2024-01-09T09:02:14.826Z,0.63
2024-01-09T09:03:14.822Z,0.62
2024-01-09T09:04:14.758Z,0.65
2024-01-09T09:05:14.744Z,0.63
2024-01-09T09:06:14.764Z,0.65
2024-01-09T09:07:14.755Z,0.64
2024-01-09T09:08:14.727Z,0.67
2024-01-09T09:09:14.661Z,0.67
2024-01-09T09:10:14.659Z,0.67
2024-01-09T09:11:14.676Z,0.68
2024-01-09T09:12:14.648Z,0.67
2024-01-09T09:13:14.634Z,0.68
2024-01-09T09:14:14.728Z,0.69
2024-01-09T09:15:14.651Z,0.69
2024-01-09T09:16:14.629Z,0.70
2024-01-09T09:17:14.640Z,0.68
2024-01-09T09:18:14.885Z,0.68
2024-01-09T09:19:14.621Z,0.69
2024-01-09T09:20:14.712Z,0.69
2024-01-09T09:21:14.556Z,0.70
2024-01-09T09:22:14.566Z,0.71
2024-01-09T09:23:14.564Z,0.70
2024-01-09T09:24:14.553Z,0.70
2024-01-09T09:25:14.518Z,0.71
2024-01-09T09:26:14.606Z,0.72
2024-01-09T09:27:14.600Z,0.71
2024-01-09T09:28:14.497Z,0.70
2024-01-09T09:29:22.470Z,0.69
2024-01-09T09:30:15.562Z,0.69
2024-01-09T09:31:14.499Z,0.70
2024-01-09T09:32:14.529Z,0.70
2024-01-09T09:33:14.589Z,0.71
2024-01-09T09:34:14.550Z,0.71
2024-01-09T09:35:14.453Z,0.72
2024-01-09T09:36:14.427Z,0.72
2024-01-09T09:37:14.410Z,0.73
2024-01-09T09:38:14.457Z,0.70
2024-01-09T09:39:14.405Z,0.70
2024-01-09T09:40:16.599Z,0.70
2024-01-09T09:41:14.425Z,0.70
2024-01-09T09:42:14.396Z,0.70
2024-01-09T09:43:14.373Z,0.69
2024-01-09T09:44:14.441Z,0.70
2024-01-09T09:45:14.354Z,0.71
2024-01-09T09:46:14.368Z,0.71
2024-01-09T09:47:14.391Z,0.69
2024-01-09T09:48:14.532Z,0.70
2024-01-09T09:49:14.415Z,0.70
2024-01-09T09:50:14.358Z,0.70
2024-01-09T09:51:14.600Z,0.70
2024-01-09T09:52:14.308Z,0.71
2024-01-09T09:53:14.367Z,0.70
2024-01-09T09:54:14.281Z,0.70
2024-01-09T09:55:14.274Z,0.70
2024-01-09T09:56:14.332Z,0.71
2024-01-09T09:57:14.289Z,0.72
2024-01-09T09:58:14.257Z,0.72
2024-01-09T09:59:14.303Z,0.70
2024-01-09T10:00:14.249Z,0.71
2024-01-09T10:01:14.296Z,0.70
2024-01-09T10:02:14.278Z,0.70
2024-01-09T10:03:14.271Z,0.67
2024-01-09T10:04:14.245Z,0.70
2024-01-09T10:05:14.199Z,0.69
2024-01-09T10:06:14.293Z,0.70
2024-01-09T10:07:14.159Z,0.67
2024-01-09T10:08:14.249Z,0.69
2024-01-09T10:09:14.136Z,0.67
2024-01-09T10:10:14.150Z,0.68
2024-01-09T10:11:14.138Z,0.66
2024-01-09T10:12:14.122Z,0.66
2024-01-09T10:13:14.109Z,0.66
2024-01-09T10:14:14.148Z,0.66
2024-01-09T10:15:14.217Z,0.67
2024-01-09T10:16:14.111Z,0.66
2024-01-09T10:17:14.172Z,0.65
2024-01-09T10:18:14.119Z,0.65
2024-01-09T10:19:14.124Z,0.64
2024-01-09T10:20:14.198Z,0.63
2024-01-09T10:21:14.081Z,0.63
2024-01-09T10:22:14.039Z,0.61
2024-01-09T10:23:14.068Z,0.62
2024-01-09T10:24:14.015Z,0.61
2024-01-09T10:25:14.128Z,0.62
2024-01-09T10:26:14.082Z,0.62
2024-01-09T10:27:14.020Z,0.61
2024-01-09T10:28:14.046Z,0.61
2024-01-09T10:29:14.007Z,0.60
2024-01-09T10:30:14.366Z,0.60
2024-01-09T10:31:14.029Z,0.59
2024-01-09T10:32:14.551Z,0.61
2024-01-09T10:33:14.060Z,0.61
2024-01-09T10:34:14.066Z,0.60
2024-01-09T10:35:14.038Z,0.58
2024-01-09T10:36:13.893Z,0.61
2024-01-09T10:37:13.873Z,0.58
2024-01-09T10:38:13.929Z,0.60
2024-01-09T10:39:14.155Z,0.59
2024-01-09T10:40:13.859Z,0.59
2024-01-09T10:41:13.862Z,0.60
2024-01-09T10:42:13.841Z,0.59
2024-01-09T10:43:13.828Z,0.57
2024-01-09T10:44:13.862Z,0.58
2024-01-09T10:45:13.800Z,0.59
2024-01-09T10:46:13.796Z,0.58
2024-01-09T10:47:13.811Z,0.60
2024-01-09T10:48:13.882Z,0.60
2024-01-09T10:49:13.820Z,0.60
2024-01-09T10:50:13.879Z,0.61
2024-01-09T10:51:13.918Z,0.61
2024-01-09T10:52:13.754Z,0.62
2024-01-09T10:53:13.877Z,0.62
2024-01-09T10:54:13.732Z,0.63
2024-01-09T10:55:13.732Z,0.64
2024-01-09T10:56:13.784Z,0.64
2024-01-09T10:57:13.704Z,0.66
2024-01-09T10:58:13.700Z,0.67
2024-01-09T10:59:13.758Z,0.66
2024-01-09T11:00:13.665Z,0.67
2024-01-09T11:01:13.717Z,0.67
2024-01-09T11:02:13.729Z,0.68
2024-01-09T11:03:13.737Z,0.70
2024-01-09T11:04:13.689Z,0.69
2024-01-09T11:05:13.656Z,0.70
2024-01-09T11:06:13.709Z,0.72
2024-01-09T11:07:13.607Z,0.72
2024-01-09T11:08:13.708Z,0.72
2024-01-09T11:09:14.548Z,0.71
2024-01-09T11:10:13.587Z,0.71
2024-01-09T11:11:23.730Z,0.73
2024-01-09T11:12:13.566Z,0.73
2024-01-09T11:13:13.559Z,0.73
2024-01-09T11:14:13.561Z,0.73
2024-01-09T11:15:13.523Z,0.73
2024-01-09T11:16:13.533Z,0.75
2024-01-09T11:17:13.508Z,0.74
2024-01-09T11:18:13.584Z,0.74
2024-01-09T11:19:13.619Z,0.76
2024-01-09T11:20:13.539Z,0.74
2024-01-09T11:21:13.494Z,0.74
2024-01-09T11:22:13.471Z,0.74
2024-01-09T11:23:13.454Z,0.75
2024-01-09T11:24:13.467Z,0.74
2024-01-09T11:25:13.454Z,0.73
2024-01-09T11:26:13.440Z,0.75
2024-01-09T11:27:13.591Z,0.74
2024-01-09T11:28:13.416Z,0.74
2024-01-09T11:29:13.425Z,0.74
2024-01-09T11:30:13.433Z,0.75
2024-01-09T11:31:13.434Z,0.75
2024-01-09T11:32:13.495Z,0.75
2024-01-09T11:33:13.439Z,0.74
2024-01-09T11:34:13.446Z,0.74
2024-01-09T11:35:13.361Z,0.75
2024-01-09T11:36:13.672Z,0.74
2024-01-09T11:37:13.330Z,0.75
2024-01-09T11:38:13.338Z,0.73
2024-01-09T11:39:13.335Z,0.75
2024-01-09T11:40:13.330Z,0.73
2024-01-09T11:41:13.324Z,0.74
2024-01-09T11:42:13.299Z,0.74
2024-01-09T11:43:13.295Z,0.76
2024-01-09T11:44:13.308Z,0.75
2024-01-09T11:45:35.791Z,0.74
2024-01-09T11:46:13.274Z,0.74
2024-01-09T11:47:13.305Z,0.75
2024-01-09T11:48:15.289Z,0.76
2024-01-09T11:49:13.325Z,0.76
2024-01-09T11:50:13.229Z,0.78
2024-01-09T11:51:13.221Z,0.78
2024-01-09T11:52:13.211Z,0.79
2024-01-09T11:53:13.188Z,0.78
2024-01-09T11:54:13.189Z,0.77
2024-01-09T11:55:13.230Z,0.78
2024-01-09T11:56:13.181Z,0.78
2024-01-09T11:57:13.157Z,0.78
2024-01-09T11:58:13.160Z,0.76
2024-01-09T11:59:13.135Z,0.78
2024-01-09T12:00:13.165Z,0.78
2024-01-09T12:01:13.149Z,0.77
2024-01-09T12:02:13.123Z,0.78
2024-01-09T12:03:13.117Z,0.77
2024-01-09T12:04:13.143Z,0.78
2024-01-09T12:05:13.098Z,0.80
2024-01-09T12:06:13.092Z,0.77
2024-01-09T12:07:13.211Z,0.78
2024-01-09T12:08:13.077Z,0.76
2024-01-09T12:09:13.048Z,0.79
2024-01-09T12:10:21.634Z,0.78
2024-01-09T12:11:14.026Z,0.78
2024-01-09T12:12:13.080Z,0.78
2024-01-09T12:13:13.004Z,0.79
2024-01-09T12:14:13.007Z,0.79
2024-01-09T12:15:12.989Z,0.78
2024-01-09T12:16:12.995Z,0.84
2024-01-09T12:17:12.981Z,1.31
2024-01-09T12:18:13.055Z,2.26
2024-01-09T12:19:13.059Z,3.04
2024-01-09T12:20:12.981Z,3.59
2024-01-09T12:21:12.976Z,3.99
2024-01-09T12:22:12.934Z,4.26
2024-01-09T12:23:12.925Z,4.21
2024-01-09T12:25:12.973Z,3.85
2024-01-09T12:26:12.894Z,3.62
2024-01-09T12:27:12.941Z,3.45
2024-01-09T12:28:12.906Z,3.25
2024-01-09T12:29:12.883Z,2.99
2024-01-09T12:30:13.136Z,2.73
2024-01-09T12:31:12.934Z,2.42
2024-01-09T12:32:12.871Z,2.22
2024-01-09T12:33:13.018Z,2.06
2024-01-09T12:34:12.993Z,1.98
2024-01-09T12:35:12.899Z,2.09
2024-01-09T12:36:12.810Z,2.00
2024-01-09T12:37:12.785Z,1.83
2024-01-09T12:38:12.800Z,1.70
2024-01-09T12:39:12.785Z,1.62
2024-01-09T12:40:12.779Z,1.52
2024-01-09T12:41:12.751Z,1.51
2024-01-09T12:42:12.758Z,1.43
2024-01-09T12:43:12.807Z,1.38
2024-01-09T12:44:12.740Z,1.30
2024-01-09T12:45:12.711Z,1.26
2024-01-09T12:46:12.714Z,1.26
2024-01-09T12:47:12.701Z,1.23
2024-01-09T12:48:12.798Z,1.18
2024-01-09T12:49:12.779Z,1.15
2024-01-09T12:50:12.772Z,1.15
2024-01-09T12:51:17.729Z,1.12
2024-01-09T12:52:12.665Z,1.11
2024-01-09T12:53:12.647Z,1.08
2024-01-09T12:54:12.633Z,1.06
2024-01-09T12:55:12.615Z,1.03
2024-01-09T12:56:12.619Z,1.04
2024-01-09T12:57:12.636Z,1.03
2024-01-09T12:58:12.597Z,1.00
2024-01-09T12:59:12.585Z,1.00
2024-01-09T13:00:12.599Z,0.99
2024-01-09T13:01:12.639Z,0.97
2024-01-09T13:02:12.662Z,0.96
2024-01-09T13:03:12.616Z,0.97
2024-01-09T13:04:12.570Z,0.96
2024-01-09T13:05:12.564Z,0.92
2024-01-09T13:06:12.701Z,0.93
2024-01-09T13:07:12.522Z,0.93
2024-01-09T13:08:12.502Z,0.93
2024-01-09T13:09:12.546Z,0.91
2024-01-09T13:10:12.477Z,0.89
2024-01-09T13:11:12.491Z,0.87
2024-01-09T13:12:14.838Z,0.85
2024-01-09T13:13:12.462Z,0.87
2024-01-09T13:14:12.437Z,0.86
2024-01-09T13:15:12.497Z,0.85
2024-01-09T13:16:12.436Z,0.86
2024-01-09T13:17:12.422Z,0.82
2024-01-09T13:18:13.835Z,0.82
2024-01-09T13:19:12.637Z,0.80